sensor_id;sensor_type;location;lat;lon;timestamp;P1;durP1;ratioP1;P2;durP2;ratioP2
50092;SDS011;35974;47.752;10.290;2022-11-21T00:00:56;2.67;;;0.93;;
50092;SDS011;35974;47.752;10.290;2022-11-21T00:03:23;0.77;;;0.57;;
50092;SDS011;35974;47.752;10.290;2022-11-21T00:05:50;1.40;;;0.70;;
50092;SDS011;35974;47.752;10.290;2022-11-21T00:08:18;1.77;;;0.90;;
50092;SDS011;35974;47.752;10.290;2022-11-21T00:10:46;2.13;;;0.80;;
50092;SDS011;35974;47.752;10.290;2022-11-21T00:13:14;3.08;;;0.70;;
50092;SDS011;35974;47.752;10.290;2022-11-21T00:15:45;1.85;;;0.73;;
50092;SDS011;35974;47.752;10.290;2022-11-21T00:18:12;1.27;;;0.75;;
50092;SDS011;35974;47.752;10.290;2022-11-21T00:20:40;1.40;;;0.88;;
50092;SDS011;35974;47.752;10.290;2022-11-21T00:23:07;0.93;;;0.60;;
50092;SDS011;35974;47.752;10.290;2022-11-21T00:25:34;0.63;;;0.60;;
50092;SDS011;35974;47.752;10.290;2022-11-21T00:28:01;1.10;;;0.77;;
50092;SDS011;35974;47.752;10.290;2022-11-21T00:33:01;2.53;;;0.90;;
50092;SDS011;35974;47.752;10.290;2022-11-21T00:35:27;1.35;;;0.60;;
50092;SDS011;35974;47.752;10.290;2022-11-21T00:37:56;1.17;;;0.60;;
50092;SDS011;35974;47.752;10.290;2022-11-21T00:40:23;1.33;;;0.80;;
50092;SDS011;35974;47.752;10.290;2022-11-21T00:42:49;1.60;;;0.68;;
50092;SDS011;35974;47.752;10.290;2022-11-21T00:45:16;1.35;;;0.80;;
50092;SDS011;35974;47.752;10.290;2022-11-21T00:47:49;2.15;;;0.60;;
50092;SDS011;35974;47.752;10.290;2022-11-21T00:50:15;1.90;;;0.50;;
50092;SDS011;35974;47.752;10.290;2022-11-21T00:52:42;0.95;;;0.52;;
50092;SDS011;35974;47.752;10.290;2022-11-21T00:55:08;1.85;;;0.73;;
50092;SDS011;35974;47.752;10.290;2022-11-21T00:57:35;1.13;;;0.60;;
50092;SDS011;35974;47.752;10.290;2022-11-21T01:00:02;2.85;;;0.80;;
50092;SDS011;35974;47.752;10.290;2022-11-21T01:02:30;2.90;;;0.77;;
50092;SDS011;35974;47.752;10.290;2022-11-21T01:04:57;1.60;;;0.52;;
50092;SDS011;35974;47.752;10.290;2022-11-21T01:07:24;3.20;;;0.80;;
50092;SDS011;35974;47.752;10.290;2022-11-21T01:09:50;2.05;;;0.82;;
50092;SDS011;35974;47.752;10.290;2022-11-21T01:12:17;0.95;;;0.50;;
50092;SDS011;35974;47.752;10.290;2022-11-21T01:14:43;2.60;;;0.73;;
50092;SDS011;35974;47.752;10.290;2022-11-21T01:17:10;1.40;;;0.60;;
50092;SDS011;35974;47.752;10.290;2022-11-21T01:19:36;2.53;;;0.60;;
50092;SDS011;35974;47.752;10.290;2022-11-21T01:22:06;0.98;;;0.40;;
50092;SDS011;35974;47.752;10.290;2022-11-21T01:24:32;1.77;;;0.60;;
50092;SDS011;35974;47.752;10.290;2022-11-21T01:26:58;1.52;;;0.50;;
50092;SDS011;35974;47.752;10.290;2022-11-21T01:29:26;1.38;;;0.55;;
50092;SDS011;35974;47.752;10.290;2022-11-21T01:31:52;1.40;;;0.70;;
50092;SDS011;35974;47.752;10.290;2022-11-21T01:34:20;1.05;;;0.60;;
50092;SDS011;35974;47.752;10.290;2022-11-21T01:36:46;2.58;;;0.60;;
50092;SDS011;35974;47.752;10.290;2022-11-21T01:39:13;2.15;;;0.68;;
50092;SDS011;35974;47.752;10.290;2022-11-21T01:41:40;3.55;;;0.70;;
50092;SDS011;35974;47.752;10.290;2022-11-21T01:46:46;1.20;;;0.73;;
50092;SDS011;35974;47.752;10.290;2022-11-21T01:49:17;1.15;;;0.82;;
50092;SDS011;35974;47.752;10.290;2022-11-21T01:52:07;1.63;;;0.77;;
50092;SDS011;35974;47.752;10.290;2022-11-21T01:55:07;1.10;;;0.63;;
50092;SDS011;35974;47.752;10.290;2022-11-21T01:57:37;1.40;;;0.70;;
50092;SDS011;35974;47.752;10.290;2022-11-21T02:00:11;2.15;;;0.95;;
50092;SDS011;35974;47.752;10.290;2022-11-21T02:02:45;3.75;;;0.63;;
50092;SDS011;35974;47.752;10.290;2022-11-21T02:05:20;2.92;;;1.25;;
50092;SDS011;35974;47.752;10.290;2022-11-21T02:07:50;5.00;;;1.00;;
50092;SDS011;35974;47.752;10.290;2022-11-21T02:10:21;4.20;;;1.08;;
50092;SDS011;35974;47.752;10.290;2022-11-21T02:12:49;2.97;;;0.80;;
50092;SDS011;35974;47.752;10.290;2022-11-21T02:15:18;3.28;;;1.00;;
50092;SDS011;35974;47.752;10.290;2022-11-21T02:17:46;3.80;;;0.80;;
50092;SDS011;35974;47.752;10.290;2022-11-21T02:20:14;2.08;;;0.82;;
50092;SDS011;35974;47.752;10.290;2022-11-21T02:22:55;2.05;;;0.70;;
50092;SDS011;35974;47.752;10.290;2022-11-21T02:25:27;1.48;;;0.70;;
50092;SDS011;35974;47.752;10.290;2022-11-21T02:27:56;2.63;;;0.63;;
50092;SDS011;35974;47.752;10.290;2022-11-21T02:30:28;2.80;;;0.90;;
50092;SDS011;35974;47.752;10.290;2022-11-21T02:32:57;2.58;;;0.50;;
50092;SDS011;35974;47.752;10.290;2022-11-21T02:35:23;2.47;;;0.60;;
50092;SDS011;35974;47.752;10.290;2022-11-21T02:37:53;3.30;;;0.60;;
50092;SDS011;35974;47.752;10.290;2022-11-21T02:40:24;2.95;;;0.70;;
50092;SDS011;35974;47.752;10.290;2022-11-21T02:45:42;3.90;;;0.68;;
50092;SDS011;35974;47.752;10.290;2022-11-21T02:48:11;3.30;;;0.65;;
50092;SDS011;35974;47.752;10.290;2022-11-21T02:50:38;1.90;;;0.60;;
50092;SDS011;35974;47.752;10.290;2022-11-21T02:53:11;3.35;;;0.80;;
50092;SDS011;35974;47.752;10.290;2022-11-21T02:55:42;3.50;;;0.70;;
50092;SDS011;35974;47.752;10.290;2022-11-21T02:58:10;2.08;;;0.65;;
50092;SDS011;35974;47.752;10.290;2022-11-21T03:00:37;1.40;;;0.70;;
50092;SDS011;35974;47.752;10.290;2022-11-21T03:03:05;3.97;;;0.98;;
50092;SDS011;35974;47.752;10.290;2022-11-21T03:05:31;3.25;;;0.95;;
50092;SDS011;35974;47.752;10.290;2022-11-21T03:07:58;3.95;;;0.90;;
50092;SDS011;35974;47.752;10.290;2022-11-21T03:10:24;2.38;;;0.70;;
50092;SDS011;35974;47.752;10.290;2022-11-21T03:12:57;3.53;;;0.70;;
50092;SDS011;35974;47.752;10.290;2022-11-21T03:15:28;2.40;;;0.80;;
50092;SDS011;35974;47.752;10.290;2022-11-21T03:17:57;4.22;;;0.68;;
50092;SDS011;35974;47.752;10.290;2022-11-21T03:20:23;3.17;;;0.75;;
50092;SDS011;35974;47.752;10.290;2022-11-21T03:22:50;2.25;;;0.50;;
50092;SDS011;35974;47.752;10.290;2022-11-21T03:25:18;1.90;;;0.60;;
50092;SDS011;35974;47.752;10.290;2022-11-21T03:27:45;5.20;;;0.70;;
50092;SDS011;35974;47.752;10.290;2022-11-21T03:30:12;0.82;;;0.50;;
50092;SDS011;35974;47.752;10.290;2022-11-21T03:32:38;2.38;;;0.80;;
50092;SDS011;35974;47.752;10.290;2022-11-21T03:35:05;0.95;;;0.50;;
50092;SDS011;35974;47.752;10.290;2022-11-21T03:37:32;1.38;;;0.40;;
50092;SDS011;35974;47.752;10.290;2022-11-21T03:39:58;2.28;;;0.77;;
50092;SDS011;35974;47.752;10.290;2022-11-21T03:42:24;2.15;;;0.65;;
50092;SDS011;35974;47.752;10.290;2022-11-21T03:44:51;2.55;;;0.60;;
50092;SDS011;35974;47.752;10.290;2022-11-21T03:47:17;1.80;;;0.60;;
50092;SDS011;35974;47.752;10.290;2022-11-21T03:49:44;1.63;;;0.68;;
50092;SDS011;35974;47.752;10.290;2022-11-21T03:52:10;1.88;;;0.60;;
50092;SDS011;35974;47.752;10.290;2022-11-21T03:54:37;2.58;;;0.52;;
50092;SDS011;35974;47.752;10.290;2022-11-21T03:57:03;2.83;;;0.90;;
50092;SDS011;35974;47.752;10.290;2022-11-21T03:59:30;2.67;;;0.77;;
50092;SDS011;35974;47.752;10.290;2022-11-21T04:01:57;0.80;;;0.55;;
50092;SDS011;35974;47.752;10.290;2022-11-21T04:04:23;1.92;;;0.50;;
50092;SDS011;35974;47.752;10.290;2022-11-21T04:06:50;6.13;;;0.70;;
50092;SDS011;35974;47.752;10.290;2022-11-21T04:09:17;3.03;;;0.77;;
50092;SDS011;35974;47.752;10.290;2022-11-21T04:11:43;2.78;;;0.60;;
50092;SDS011;35974;47.752;10.290;2022-11-21T04:14:10;1.27;;;0.40;;
50092;SDS011;35974;47.752;10.290;2022-11-21T04:16:36;1.40;;;0.68;;
50092;SDS011;35974;47.752;10.290;2022-11-21T04:19:03;1.45;;;0.40;;
50092;SDS011;35974;47.752;10.290;2022-11-21T04:21:29;0.50;;;0.40;;
50092;SDS011;35974;47.752;10.290;2022-11-21T04:23:55;1.10;;;0.30;;
50092;SDS011;35974;47.752;10.290;2022-11-21T04:26:22;0.70;;;0.30;;
50092;SDS011;35974;47.752;10.290;2022-11-21T04:28:48;1.35;;;0.50;;
50092;SDS011;35974;47.752;10.290;2022-11-21T04:31:15;0.40;;;0.30;;
50092;SDS011;35974;47.752;10.290;2022-11-21T04:33:41;1.02;;;0.30;;
50092;SDS011;35974;47.752;10.290;2022-11-21T04:36:08;0.40;;;0.20;;
50092;SDS011;35974;47.752;10.290;2022-11-21T04:38:35;0.50;;;0.40;;
50092;SDS011;35974;47.752;10.290;2022-11-21T04:41:02;0.50;;;0.30;;
50092;SDS011;35974;47.752;10.290;2022-11-21T04:43:28;1.40;;;0.30;;
50092;SDS011;35974;47.752;10.290;2022-11-21T04:45:55;0.35;;;0.30;;
50092;SDS011;35974;47.752;10.290;2022-11-21T04:48:21;0.43;;;0.30;;
50092;SDS011;35974;47.752;10.290;2022-11-21T04:50:47;1.85;;;0.30;;
50092;SDS011;35974;47.752;10.290;2022-11-21T04:53:14;0.38;;;0.20;;
50092;SDS011;35974;47.752;10.290;2022-11-21T04:55:40;0.30;;;0.20;;
50092;SDS011;35974;47.752;10.290;2022-11-21T04:58:07;0.32;;;0.28;;
50092;SDS011;35974;47.752;10.290;2022-11-21T05:00:34;0.40;;;0.30;;
50092;SDS011;35974;47.752;10.290;2022-11-21T05:03:04;0.22;;;0.20;;
50092;SDS011;35974;47.752;10.290;2022-11-21T05:05:31;0.88;;;0.20;;
50092;SDS011;35974;47.752;10.290;2022-11-21T05:07:58;0.45;;;0.22;;
50092;SDS011;35974;47.752;10.290;2022-11-21T05:10:25;0.15;;;0.15;;
50092;SDS011;35974;47.752;10.290;2022-11-21T05:12:58;0.30;;;0.20;;
50092;SDS011;35974;47.752;10.290;2022-11-21T05:15:46;1.38;;;0.30;;
50092;SDS011;35974;47.752;10.290;2022-11-21T05:18:17;0.73;;;0.30;;
50092;SDS011;35974;47.752;10.290;2022-11-21T05:20:44;0.80;;;0.32;;
50092;SDS011;35974;47.752;10.290;2022-11-21T05:23:11;0.32;;;0.30;;
50092;SDS011;35974;47.752;10.290;2022-11-21T05:25:38;1.33;;;0.30;;
50092;SDS011;35974;47.752;10.290;2022-11-21T05:28:05;0.70;;;0.30;;
50092;SDS011;35974;47.752;10.290;2022-11-21T05:30:31;1.00;;;0.17;;
50092;SDS011;35974;47.752;10.290;2022-11-21T05:32:58;0.85;;;0.20;;
50092;SDS011;35974;47.752;10.290;2022-11-21T05:35:24;0.43;;;0.20;;
50092;SDS011;35974;47.752;10.290;2022-11-21T05:37:54;1.23;;;0.10;;
50092;SDS011;35974;47.752;10.290;2022-11-21T05:40:22;2.30;;;0.40;;
50092;SDS011;35974;47.752;10.290;2022-11-21T05:42:49;0.50;;;0.40;;
50092;SDS011;35974;47.752;10.290;2022-11-21T05:45:34;0.73;;;0.50;;
50092;SDS011;35974;47.752;10.290;2022-11-21T05:48:02;3.28;;;1.23;;
50092;SDS011;35974;47.752;10.290;2022-11-21T05:50:34;1.08;;;0.63;;
50092;SDS011;35974;47.752;10.290;2022-11-21T05:53:04;2.72;;;0.70;;
50092;SDS011;35974;47.752;10.290;2022-11-21T05:58:04;0.95;;;0.70;;
50092;SDS011;35974;47.752;10.290;2022-11-21T06:00:31;1.67;;;0.85;;
50092;SDS011;35974;47.752;10.290;2022-11-21T06:02:58;2.20;;;0.93;;
50092;SDS011;35974;47.752;10.290;2022-11-21T06:05:43;1.45;;;0.70;;
50092;SDS011;35974;47.752;10.290;2022-11-21T06:08:10;1.13;;;0.80;;
50092;SDS011;35974;47.752;10.290;2022-11-21T06:10:36;1.95;;;0.60;;
50092;SDS011;35974;47.752;10.290;2022-11-21T06:13:02;1.55;;;0.60;;
50092;SDS011;35974;47.752;10.290;2022-11-21T06:15:29;2.70;;;0.82;;
50092;SDS011;35974;47.752;10.290;2022-11-21T06:17:58;1.38;;;0.80;;
50092;SDS011;35974;47.752;10.290;2022-11-21T06:20:25;2.88;;;0.70;;
50092;SDS011;35974;47.752;10.290;2022-11-21T06:22:52;3.88;;;0.82;;
50092;SDS011;35974;47.752;10.290;2022-11-21T06:25:21;2.00;;;0.80;;
50092;SDS011;35974;47.752;10.290;2022-11-21T06:27:48;2.20;;;0.60;;
50092;SDS011;35974;47.752;10.290;2022-11-21T06:30:23;2.83;;;0.70;;
50092;SDS011;35974;47.752;10.290;2022-11-21T06:32:50;2.40;;;0.75;;
50092;SDS011;35974;47.752;10.290;2022-11-21T06:35:16;6.20;;;2.22;;
50092;SDS011;35974;47.752;10.290;2022-11-21T06:37:43;4.07;;;1.67;;
50092;SDS011;35974;47.752;10.290;2022-11-21T06:40:09;3.92;;;1.70;;
50092;SDS011;35974;47.752;10.290;2022-11-21T06:42:36;1.73;;;0.90;;
50092;SDS011;35974;47.752;10.290;2022-11-21T06:45:03;5.45;;;0.90;;
50092;SDS011;35974;47.752;10.290;2022-11-21T06:47:35;0.82;;;0.68;;
50092;SDS011;35974;47.752;10.290;2022-11-21T06:50:02;2.45;;;0.85;;
50092;SDS011;35974;47.752;10.290;2022-11-21T06:52:31;5.45;;;0.90;;
50092;SDS011;35974;47.752;10.290;2022-11-21T06:54:58;4.55;;;0.73;;
50092;SDS011;35974;47.752;10.290;2022-11-21T06:57:27;1.13;;;0.60;;
50092;SDS011;35974;47.752;10.290;2022-11-21T06:59:54;3.10;;;0.82;;
50092;SDS011;35974;47.752;10.290;2022-11-21T07:02:21;3.22;;;1.55;;
50092;SDS011;35974;47.752;10.290;2022-11-21T07:04:48;3.88;;;2.15;;
50092;SDS011;35974;47.752;10.290;2022-11-21T07:07:14;1.95;;;0.85;;
50092;SDS011;35974;47.752;10.290;2022-11-21T07:09:41;2.20;;;0.60;;
50092;SDS011;35974;47.752;10.290;2022-11-21T07:12:09;0.98;;;0.60;;
50092;SDS011;35974;47.752;10.290;2022-11-21T07:14:54;1.80;;;0.60;;
50092;SDS011;35974;47.752;10.290;2022-11-21T07:17:21;0.68;;;0.30;;
50092;SDS011;35974;47.752;10.290;2022-11-21T07:19:47;1.55;;;0.32;;
50092;SDS011;35974;47.752;10.290;2022-11-21T07:22:14;2.60;;;0.38;;
50092;SDS011;35974;47.752;10.290;2022-11-21T07:24:40;1.85;;;1.30;;
50092;SDS011;35974;47.752;10.290;2022-11-21T07:27:07;3.10;;;0.82;;
50092;SDS011;35974;47.752;10.290;2022-11-21T07:29:33;2.03;;;1.00;;
50092;SDS011;35974;47.752;10.290;2022-11-21T07:32:00;2.20;;;0.95;;
50092;SDS011;35974;47.752;10.290;2022-11-21T07:34:26;3.03;;;0.88;;
50092;SDS011;35974;47.752;10.290;2022-11-21T07:36:52;4.18;;;1.27;;
50092;SDS011;35974;47.752;10.290;2022-11-21T07:39:19;4.85;;;1.90;;
50092;SDS011;35974;47.752;10.290;2022-11-21T07:41:45;6.85;;;2.00;;
50092;SDS011;35974;47.752;10.290;2022-11-21T07:44:12;4.88;;;1.27;;
50092;SDS011;35974;47.752;10.290;2022-11-21T07:46:38;4.15;;;1.65;;
50092;SDS011;35974;47.752;10.290;2022-11-21T07:49:05;6.47;;;1.58;;
50092;SDS011;35974;47.752;10.290;2022-11-21T07:51:31;4.05;;;1.20;;
50092;SDS011;35974;47.752;10.290;2022-11-21T07:53:58;2.40;;;1.10;;
50092;SDS011;35974;47.752;10.290;2022-11-21T07:56:24;5.78;;;1.63;;
50092;SDS011;35974;47.752;10.290;2022-11-21T07:58:51;2.70;;;1.30;;
50092;SDS011;35974;47.752;10.290;2022-11-21T08:01:18;5.45;;;1.58;;
50092;SDS011;35974;47.752;10.290;2022-11-21T08:03:45;4.75;;;1.38;;
50092;SDS011;35974;47.752;10.290;2022-11-21T08:06:11;4.10;;;1.50;;
50092;SDS011;35974;47.752;10.290;2022-11-21T08:08:38;3.63;;;1.33;;
50092;SDS011;35974;47.752;10.290;2022-11-21T08:11:05;2.70;;;1.30;;
50092;SDS011;35974;47.752;10.290;2022-11-21T08:13:33;3.38;;;1.30;;
50092;SDS011;35974;47.752;10.290;2022-11-21T08:16:08;5.47;;;1.40;;
50092;SDS011;35974;47.752;10.290;2022-11-21T08:18:35;3.92;;;1.20;;
50092;SDS011;35974;47.752;10.290;2022-11-21T08:21:02;6.10;;;1.45;;
50092;SDS011;35974;47.752;10.290;2022-11-21T08:23:30;3.28;;;1.30;;
50092;SDS011;35974;47.752;10.290;2022-11-21T08:25:57;9.52;;;1.00;;
50092;SDS011;35974;47.752;10.290;2022-11-21T08:28:24;2.40;;;1.05;;
50092;SDS011;35974;47.752;10.290;2022-11-21T08:30:50;3.20;;;1.30;;
50092;SDS011;35974;47.752;10.290;2022-11-21T08:33:17;8.07;;;2.65;;
50092;SDS011;35974;47.752;10.290;2022-11-21T08:35:43;5.88;;;1.30;;
50092;SDS011;35974;47.752;10.290;2022-11-21T08:38:10;3.47;;;1.10;;
50092;SDS011;35974;47.752;10.290;2022-11-21T08:40:36;3.70;;;1.08;;
50092;SDS011;35974;47.752;10.290;2022-11-21T08:43:03;0.82;;;0.80;;
50092;SDS011;35974;47.752;10.290;2022-11-21T08:45:32;4.80;;;2.10;;
50092;SDS011;35974;47.752;10.290;2022-11-21T08:48:00;3.38;;;0.80;;
50092;SDS011;35974;47.752;10.290;2022-11-21T08:50:27;2.53;;;1.10;;
50092;SDS011;35974;47.752;10.290;2022-11-21T08:53:00;3.15;;;0.90;;
50092;SDS011;35974;47.752;10.290;2022-11-21T08:55:27;1.83;;;0.57;;
50092;SDS011;35974;47.752;10.290;2022-11-21T08:57:54;1.70;;;0.93;;
50092;SDS011;35974;47.752;10.290;2022-11-21T09:00:21;3.90;;;0.90;;
50092;SDS011;35974;47.752;10.290;2022-11-21T09:02:47;2.65;;;0.93;;
50092;SDS011;35974;47.752;10.290;2022-11-21T09:05:14;4.40;;;1.10;;
50092;SDS011;35974;47.752;10.290;2022-11-21T09:07:40;3.40;;;1.38;;
50092;SDS011;35974;47.752;10.290;2022-11-21T09:10:07;6.93;;;1.05;;
50092;SDS011;35974;47.752;10.290;2022-11-21T09:12:34;2.42;;;1.10;;
50092;SDS011;35974;47.752;10.290;2022-11-21T09:15:00;6.10;;;3.03;;
50092;SDS011;35974;47.752;10.290;2022-11-21T09:17:45;3.90;;;0.90;;
50092;SDS011;35974;47.752;10.290;2022-11-21T09:20:30;2.47;;;0.70;;
50092;SDS011;35974;47.752;10.290;2022-11-21T09:23:03;3.20;;;0.70;;
50092;SDS011;35974;47.752;10.290;2022-11-21T09:25:34;4.82;;;0.70;;
50092;SDS011;35974;47.752;10.290;2022-11-21T09:28:00;1.70;;;0.70;;
50092;SDS011;35974;47.752;10.290;2022-11-21T09:30:28;1.65;;;0.68;;
50092;SDS011;35974;47.752;10.290;2022-11-21T09:32:58;1.83;;;0.57;;
50092;SDS011;35974;47.752;10.290;2022-11-21T09:35:28;1.73;;;0.70;;
50092;SDS011;35974;47.752;10.290;2022-11-21T09:37:55;1.90;;;0.60;;
50092;SDS011;35974;47.752;10.290;2022-11-21T09:40:22;1.40;;;0.40;;
50092;SDS011;35974;47.752;10.290;2022-11-21T09:42:53;1.35;;;0.80;;
50092;SDS011;35974;47.752;10.290;2022-11-21T09:45:25;2.20;;;1.00;;
50092;SDS011;35974;47.752;10.290;2022-11-21T09:48:01;1.67;;;0.52;;
50092;SDS011;35974;47.752;10.290;2022-11-21T09:50:34;2.55;;;0.80;;
50092;SDS011;35974;47.752;10.290;2022-11-21T09:53:05;1.88;;;0.75;;
50092;SDS011;35974;47.752;10.290;2022-11-21T09:55:43;2.35;;;1.10;;
50092;SDS011;35974;47.752;10.290;2022-11-21T10:00:50;1.95;;;0.93;;
50092;SDS011;35974;47.752;10.290;2022-11-21T10:03:17;1.65;;;0.65;;
50092;SDS011;35974;47.752;10.290;2022-11-21T10:05:52;1.65;;;0.68;;
50092;SDS011;35974;47.752;10.290;2022-11-21T10:08:27;1.88;;;1.08;;
50092;SDS011;35974;47.752;10.290;2022-11-21T10:10:57;1.27;;;0.60;;
50092;SDS011;35974;47.752;10.290;2022-11-21T10:19:13;3.45;;;1.58;;
50092;SDS011;35974;47.752;10.290;2022-11-21T10:30:18;4.25;;;1.50;;
50092;SDS011;35974;47.752;10.290;2022-11-21T10:32:53;3.72;;;1.25;;
50092;SDS011;35974;47.752;10.290;2022-11-21T10:35:24;1.48;;;1.00;;
50092;SDS011;35974;47.752;10.290;2022-11-21T10:38:01;2.75;;;1.70;;
50092;SDS011;35974;47.752;10.290;2022-11-21T10:40:36;3.15;;;2.10;;
50092;SDS011;35974;47.752;10.290;2022-11-21T10:46:00;9.23;;;5.35;;
50092;SDS011;35974;47.752;10.290;2022-11-21T10:48:26;5.38;;;3.83;;
50092;SDS011;35974;47.752;10.290;2022-11-21T10:53:48;8.35;;;5.55;;
50092;SDS011;35974;47.752;10.290;2022-11-21T10:56:47;5.78;;;2.38;;
50092;SDS011;35974;47.752;10.290;2022-11-21T10:59:19;2.58;;;1.52;;
50092;SDS011;35974;47.752;10.290;2022-11-21T11:02:19;3.33;;;2.00;;
50092;SDS011;35974;47.752;10.290;2022-11-21T11:04:45;2.85;;;1.77;;
50092;SDS011;35974;47.752;10.290;2022-11-21T11:07:24;2.70;;;1.35;;
50092;SDS011;35974;47.752;10.290;2022-11-21T11:10:12;2.55;;;1.58;;
50092;SDS011;35974;47.752;10.290;2022-11-21T11:12:41;15.57;;;4.60;;
50092;SDS011;35974;47.752;10.290;2022-11-21T11:15:30;3.47;;;1.20;;
50092;SDS011;35974;47.752;10.290;2022-11-21T11:17:57;3.35;;;1.10;;
50092;SDS011;35974;47.752;10.290;2022-11-21T11:20:36;3.65;;;1.08;;
50092;SDS011;35974;47.752;10.290;2022-11-21T11:23:14;1.98;;;1.13;;
50092;SDS011;35974;47.752;10.290;2022-11-21T11:25:54;2.17;;;0.95;;
50092;SDS011;35974;47.752;10.290;2022-11-21T11:28:20;3.35;;;1.25;;
50092;SDS011;35974;47.752;10.290;2022-11-21T11:30:49;2.10;;;0.90;;
50092;SDS011;35974;47.752;10.290;2022-11-21T11:38:41;1.38;;;0.70;;
50092;SDS011;35974;47.752;10.290;2022-11-21T11:41:18;3.03;;;1.00;;
50092;SDS011;35974;47.752;10.290;2022-11-21T11:44:18;4.20;;;1.00;;
50092;SDS011;35974;47.752;10.290;2022-11-21T11:47:18;1.92;;;0.73;;
50092;SDS011;35974;47.752;10.290;2022-11-21T11:49:59;3.20;;;1.10;;
50092;SDS011;35974;47.752;10.290;2022-11-21T11:52:48;4.03;;;1.30;;
50092;SDS011;35974;47.752;10.290;2022-11-21T11:55:23;3.35;;;1.00;;
50092;SDS011;35974;47.752;10.290;2022-11-21T11:57:58;6.32;;;1.23;;
50092;SDS011;35974;47.752;10.290;2022-11-21T12:05:35;3.40;;;1.20;;
50092;SDS011;35974;47.752;10.290;2022-11-21T12:11:08;4.88;;;1.00;;
50092;SDS011;35974;47.752;10.290;2022-11-21T12:14:00;2.45;;;0.80;;
50092;SDS011;35974;47.752;10.290;2022-11-21T12:17:19;3.42;;;0.75;;
50092;SDS011;35974;47.752;10.290;2022-11-21T12:19:52;4.07;;;1.40;;
50092;SDS011;35974;47.752;10.290;2022-11-21T12:22:19;5.88;;;1.00;;
50092;SDS011;35974;47.752;10.290;2022-11-21T12:24:46;3.25;;;0.90;;
50092;SDS011;35974;47.752;10.290;2022-11-21T12:27:31;5.80;;;1.23;;
50092;SDS011;35974;47.752;10.290;2022-11-21T12:41:27;4.32;;;0.82;;
50092;SDS011;35974;47.752;10.290;2022-11-21T12:50:33;3.63;;;1.50;;
50092;SDS011;35974;47.752;10.290;2022-11-21T12:53:39;4.90;;;1.48;;
50092;SDS011;35974;47.752;10.290;2022-11-21T12:56:46;4.25;;;1.60;;
50092;SDS011;35974;47.752;10.290;2022-11-21T12:59:18;5.05;;;2.40;;
50092;SDS011;35974;47.752;10.290;2022-11-21T13:04:55;8.15;;;1.10;;
50092;SDS011;35974;47.752;10.290;2022-11-21T13:07:24;4.05;;;0.90;;
50092;SDS011;35974;47.752;10.290;2022-11-21T13:09:55;6.38;;;1.00;;
50092;SDS011;35974;47.752;10.290;2022-11-21T13:15:28;5.50;;;1.23;;
50092;SDS011;35974;47.752;10.290;2022-11-21T13:20:57;6.32;;;1.50;;
50092;SDS011;35974;47.752;10.290;2022-11-21T13:25:56;3.45;;;0.73;;
50092;SDS011;35974;47.752;10.290;2022-11-21T13:28:28;2.30;;;0.63;;
50092;SDS011;35974;47.752;10.290;2022-11-21T13:30:58;21.65;;;7.40;;
50092;SDS011;35974;47.752;10.290;2022-11-21T13:36:11;2.85;;;0.80;;
50092;SDS011;35974;47.752;10.290;2022-11-21T13:49:49;3.67;;;1.42;;
50092;SDS011;35974;47.752;10.290;2022-11-21T14:06:50;6.30;;;1.20;;
50092;SDS011;35974;47.752;10.290;2022-11-21T14:12:04;1.67;;;0.60;;
50092;SDS011;35974;47.752;10.290;2022-11-21T14:20:06;4.40;;;1.10;;
50092;SDS011;35974;47.752;10.290;2022-11-21T14:22:53;5.80;;;0.90;;
50092;SDS011;35974;47.752;10.290;2022-11-21T14:25:29;3.03;;;1.08;;
50092;SDS011;35974;47.752;10.290;2022-11-21T14:28:11;5.68;;;1.08;;
50092;SDS011;35974;47.752;10.290;2022-11-21T14:38:57;2.83;;;0.80;;
50092;SDS011;35974;47.752;10.290;2022-11-21T14:41:56;5.70;;;1.00;;
50092;SDS011;35974;47.752;10.290;2022-11-21T14:44:25;5.68;;;0.77;;
50092;SDS011;35974;47.752;10.290;2022-11-21T14:52:40;1.98;;;0.98;;
50092;SDS011;35974;47.752;10.290;2022-11-21T14:57:58;1.92;;;1.25;;
50092;SDS011;35974;47.752;10.290;2022-11-21T15:00:28;2.75;;;1.60;;
50092;SDS011;35974;47.752;10.290;2022-11-21T15:03:19;5.30;;;1.75;;
50092;SDS011;35974;47.752;10.290;2022-11-21T15:05:48;4.97;;;2.60;;
50092;SDS011;35974;47.752;10.290;2022-11-21T15:08:45;12.75;;;4.20;;
50092;SDS011;35974;47.752;10.290;2022-11-21T15:14:26;10.40;;;4.82;;
50092;SDS011;35974;47.752;10.290;2022-11-21T15:17:04;5.82;;;2.65;;
50092;SDS011;35974;47.752;10.290;2022-11-21T15:19:37;6.57;;;3.15;;
50092;SDS011;35974;47.752;10.290;2022-11-21T15:22:14;8.18;;;2.85;;
50092;SDS011;35974;47.752;10.290;2022-11-21T15:27:50;6.55;;;3.05;;
50092;SDS011;35974;47.752;10.290;2022-11-21T15:30:32;7.85;;;3.60;;
50092;SDS011;35974;47.752;10.290;2022-11-21T15:33:00;10.00;;;2.42;;
50092;SDS011;35974;47.752;10.290;2022-11-21T15:46:37;2.67;;;1.70;;
50092;SDS011;35974;47.752;10.290;2022-11-21T15:49:11;6.10;;;1.42;;
50092;SDS011;35974;47.752;10.290;2022-11-21T15:51:58;4.70;;;1.65;;
50092;SDS011;35974;47.752;10.290;2022-11-21T15:54:44;4.78;;;2.40;;
50092;SDS011;35974;47.752;10.290;2022-11-21T15:57:12;5.25;;;2.08;;
50092;SDS011;35974;47.752;10.290;2022-11-21T15:59:42;6.07;;;2.30;;
50092;SDS011;35974;47.752;10.290;2022-11-21T16:02:10;6.68;;;2.22;;
50092;SDS011;35974;47.752;10.290;2022-11-21T16:04:43;9.20;;;2.92;;
50092;SDS011;35974;47.752;10.290;2022-11-21T16:07:23;6.65;;;3.20;;
50092;SDS011;35974;47.752;10.290;2022-11-21T16:10:03;22.10;;;9.48;;
50092;SDS011;35974;47.752;10.290;2022-11-21T16:12:30;13.25;;;6.10;;
50092;SDS011;35974;47.752;10.290;2022-11-21T16:14:57;13.25;;;4.82;;
50092;SDS011;35974;47.752;10.290;2022-11-21T16:17:37;9.65;;;4.25;;
50092;SDS011;35974;47.752;10.290;2022-11-21T16:22:44;7.07;;;3.13;;
50092;SDS011;35974;47.752;10.290;2022-11-21T16:25:20;5.90;;;3.00;;
50092;SDS011;35974;47.752;10.290;2022-11-21T16:27:56;8.77;;;4.20;;
50092;SDS011;35974;47.752;10.290;2022-11-21T16:30:30;8.18;;;3.97;;
50092;SDS011;35974;47.752;10.290;2022-11-21T16:32:59;7.38;;;3.90;;
50092;SDS011;35974;47.752;10.290;2022-11-21T16:35:27;6.30;;;4.10;;
50092;SDS011;35974;47.752;10.290;2022-11-21T16:40:31;7.80;;;4.05;;
50092;SDS011;35974;47.752;10.290;2022-11-21T16:43:06;8.20;;;3.80;;
50092;SDS011;35974;47.752;10.290;2022-11-21T16:45:48;7.72;;;3.90;;
50092;SDS011;35974;47.752;10.290;2022-11-21T16:48:15;6.25;;;3.75;;
50092;SDS011;35974;47.752;10.290;2022-11-21T16:53:13;8.55;;;4.90;;
50092;SDS011;35974;47.752;10.290;2022-11-21T16:55:58;9.02;;;4.40;;
50092;SDS011;35974;47.752;10.290;2022-11-21T16:58:25;8.48;;;4.22;;
50092;SDS011;35974;47.752;10.290;2022-11-21T17:00:52;8.15;;;4.82;;
50092;SDS011;35974;47.752;10.290;2022-11-21T17:03:24;9.07;;;4.28;;
50092;SDS011;35974;47.752;10.290;2022-11-21T17:05:57;8.45;;;4.80;;
50092;SDS011;35974;47.752;10.290;2022-11-21T17:08:26;11.48;;;5.90;;
50092;SDS011;35974;47.752;10.290;2022-11-21T17:10:55;38.78;;;16.63;;
50092;SDS011;35974;47.752;10.290;2022-11-21T17:13:27;25.10;;;11.48;;
50092;SDS011;35974;47.752;10.290;2022-11-21T17:16:06;27.67;;;13.20;;
50092;SDS011;35974;47.752;10.290;2022-11-21T17:18:34;21.70;;;10.55;;
50092;SDS011;35974;47.752;10.290;2022-11-21T17:21:04;17.27;;;9.80;;
50092;SDS011;35974;47.752;10.290;2022-11-21T17:23:35;15.30;;;8.48;;
50092;SDS011;35974;47.752;10.290;2022-11-21T17:26:20;12.13;;;8.25;;
50092;SDS011;35974;47.752;10.290;2022-11-21T17:28:57;14.13;;;7.90;;